sensor_id;sensor_type;location;lat;lon;timestamp;P1;durP1;ratioP1;P2;durP2;ratioP2
73940;SDS011;62294;48.554;10.202;2023-07-22T00:01:50;3.13;;;1.75;;
73940;SDS011;62294;48.554;10.202;2023-07-22T00:04:17;5.20;;;2.38;;
73940;SDS011;62294;48.554;10.202;2023-07-22T00:06:43;4.82;;;2.20;;
73940;SDS011;62294;48.554;10.202;2023-07-22T00:09:09;5.57;;;2.17;;
73940;SDS011;62294;48.554;10.202;2023-07-22T00:11:36;4.18;;;1.92;;
73940;SDS011;62294;48.554;10.202;2023-07-22T00:14:03;2.97;;;1.90;;
73940;SDS011;62294;48.554;10.202;2023-07-22T00:16:32;2.08;;;1.73;;
73940;SDS011;62294;48.554;10.202;2023-07-22T00:18:59;3.58;;;1.63;;
73940;SDS011;62294;48.554;10.202;2023-07-22T00:21:26;3.45;;;2.10;;
73940;SDS011;62294;48.554;10.202;2023-07-22T00:23:53;3.88;;;1.98;;
73940;SDS011;62294;48.554;10.202;2023-07-22T00:26:19;3.42;;;1.65;;
73940;SDS011;62294;48.554;10.202;2023-07-22T00:28:46;3.28;;;1.88;;
73940;SDS011;62294;48.554;10.202;2023-07-22T00:31:12;2.67;;;1.80;;
73940;SDS011;62294;48.554;10.202;2023-07-22T00:33:39;3.28;;;1.80;;
73940;SDS011;62294;48.554;10.202;2023-07-22T00:36:05;3.05;;;1.90;;
73940;SDS011;62294;48.554;10.202;2023-07-22T00:38:33;4.43;;;2.10;;
73940;SDS011;62294;48.554;10.202;2023-07-22T00:40:59;4.68;;;1.83;;
73940;SDS011;62294;48.554;10.202;2023-07-22T00:43:26;3.20;;;1.80;;
73940;SDS011;62294;48.554;10.202;2023-07-22T00:45:52;2.63;;;1.67;;
73940;SDS011;62294;48.554;10.202;2023-07-22T00:48:19;2.95;;;1.70;;
73940;SDS011;62294;48.554;10.202;2023-07-22T00:50:46;4.82;;;2.33;;
73940;SDS011;62294;48.554;10.202;2023-07-22T00:53:12;2.08;;;1.40;;
73940;SDS011;62294;48.554;10.202;2023-07-22T00:55:39;2.67;;;1.70;;
73940;SDS011;62294;48.554;10.202;2023-07-22T00:58:09;2.83;;;1.70;;
73940;SDS011;62294;48.554;10.202;2023-07-22T01:00:35;2.85;;;1.80;;
73940;SDS011;62294;48.554;10.202;2023-07-22T01:03:02;3.63;;;2.05;;
73940;SDS011;62294;48.554;10.202;2023-07-22T01:05:30;2.83;;;1.80;;
73940;SDS011;62294;48.554;10.202;2023-07-22T01:07:57;2.33;;;1.58;;
73940;SDS011;62294;48.554;10.202;2023-07-22T01:10:23;4.03;;;1.90;;
73940;SDS011;62294;48.554;10.202;2023-07-22T01:12:50;3.03;;;1.90;;
73940;SDS011;62294;48.554;10.202;2023-07-22T01:15:16;5.38;;;2.08;;
73940;SDS011;62294;48.554;10.202;2023-07-22T01:17:44;1.88;;;1.48;;
73940;SDS011;62294;48.554;10.202;2023-07-22T01:20:11;4.05;;;2.00;;
73940;SDS011;62294;48.554;10.202;2023-07-22T01:22:38;3.00;;;1.85;;
73940;SDS011;62294;48.554;10.202;2023-07-22T01:25:06;2.42;;;1.45;;
73940;SDS011;62294;48.554;10.202;2023-07-22T01:27:33;3.38;;;2.05;;
73940;SDS011;62294;48.554;10.202;2023-07-22T01:30:00;3.22;;;2.05;;
73940;SDS011;62294;48.554;10.202;2023-07-22T01:32:29;3.70;;;2.00;;
73940;SDS011;62294;48.554;10.202;2023-07-22T01:34:56;3.63;;;2.00;;
73940;SDS011;62294;48.554;10.202;2023-07-22T01:37:23;2.47;;;1.48;;
73940;SDS011;62294;48.554;10.202;2023-07-22T01:39:50;2.88;;;1.83;;
73940;SDS011;62294;48.554;10.202;2023-07-22T01:42:17;3.42;;;1.67;;
73940;SDS011;62294;48.554;10.202;2023-07-22T01:44:44;2.78;;;1.55;;
73940;SDS011;62294;48.554;10.202;2023-07-22T01:47:10;3.03;;;1.80;;
73940;SDS011;62294;48.554;10.202;2023-07-22T01:49:37;3.83;;;2.00;;
73940;SDS011;62294;48.554;10.202;2023-07-22T01:52:03;4.18;;;2.25;;
73940;SDS011;62294;48.554;10.202;2023-07-22T01:54:31;4.63;;;1.80;;
73940;SDS011;62294;48.554;10.202;2023-07-22T01:56:58;3.75;;;2.10;;
73940;SDS011;62294;48.554;10.202;2023-07-22T01:59:24;3.38;;;1.80;;
73940;SDS011;62294;48.554;10.202;2023-07-22T02:01:51;3.40;;;1.75;;
73940;SDS011;62294;48.554;10.202;2023-07-22T02:04:18;2.78;;;1.55;;
73940;SDS011;62294;48.554;10.202;2023-07-22T02:06:44;4.15;;;1.85;;
73940;SDS011;62294;48.554;10.202;2023-07-22T02:09:12;3.45;;;2.10;;
73940;SDS011;62294;48.554;10.202;2023-07-22T02:11:40;5.22;;;2.60;;
73940;SDS011;62294;48.554;10.202;2023-07-22T02:14:07;4.75;;;2.33;;
73940;SDS011;62294;48.554;10.202;2023-07-22T02:16:34;3.05;;;1.80;;
73940;SDS011;62294;48.554;10.202;2023-07-22T02:19:01;4.05;;;2.22;;
73940;SDS011;62294;48.554;10.202;2023-07-22T02:21:28;3.13;;;1.73;;
73940;SDS011;62294;48.554;10.202;2023-07-22T02:23:55;3.08;;;1.90;;
73940;SDS011;62294;48.554;10.202;2023-07-22T02:26:22;2.70;;;1.92;;
73940;SDS011;62294;48.554;10.202;2023-07-22T02:28:48;2.88;;;1.80;;
73940;SDS011;62294;48.554;10.202;2023-07-22T02:31:14;3.00;;;2.13;;
73940;SDS011;62294;48.554;10.202;2023-07-22T02:33:41;1.88;;;1.63;;
73940;SDS011;62294;48.554;10.202;2023-07-22T02:36:08;3.95;;;2.40;;
73940;SDS011;62294;48.554;10.202;2023-07-22T02:38:35;4.47;;;2.42;;
73940;SDS011;62294;48.554;10.202;2023-07-22T02:41:02;4.65;;;2.03;;
73940;SDS011;62294;48.554;10.202;2023-07-22T02:43:29;3.55;;;1.85;;
73940;SDS011;62294;48.554;10.202;2023-07-22T02:45:56;3.55;;;2.17;;
73940;SDS011;62294;48.554;10.202;2023-07-22T02:48:22;4.35;;;2.00;;
73940;SDS011;62294;48.554;10.202;2023-07-22T02:50:49;3.08;;;1.90;;
73940;SDS011;62294;48.554;10.202;2023-07-22T02:53:16;2.88;;;1.88;;
73940;SDS011;62294;48.554;10.202;2023-07-22T02:55:42;4.38;;;2.20;;
73940;SDS011;62294;48.554;10.202;2023-07-22T02:58:09;4.43;;;2.15;;
73940;SDS011;62294;48.554;10.202;2023-07-22T03:00:35;3.58;;;2.10;;
73940;SDS011;62294;48.554;10.202;2023-07-22T03:03:02;4.55;;;2.10;;
73940;SDS011;62294;48.554;10.202;2023-07-22T03:05:31;3.03;;;1.90;;
73940;SDS011;62294;48.554;10.202;2023-07-22T03:07:59;4.00;;;2.22;;
73940;SDS011;62294;48.554;10.202;2023-07-22T03:10:25;2.92;;;2.05;;
73940;SDS011;62294;48.554;10.202;2023-07-22T03:12:52;3.97;;;2.20;;
73940;SDS011;62294;48.554;10.202;2023-07-22T03:15:22;3.65;;;2.05;;
73940;SDS011;62294;48.554;10.202;2023-07-22T03:17:49;4.20;;;1.95;;
73940;SDS011;62294;48.554;10.202;2023-07-22T03:20:16;4.00;;;1.98;;
73940;SDS011;62294;48.554;10.202;2023-07-22T03:22:45;2.83;;;1.70;;
73940;SDS011;62294;48.554;10.202;2023-07-22T03:25:12;3.22;;;2.00;;
73940;SDS011;62294;48.554;10.202;2023-07-22T03:27:43;3.35;;;2.22;;
73940;SDS011;62294;48.554;10.202;2023-07-22T03:30:12;4.45;;;2.40;;
73940;SDS011;62294;48.554;10.202;2023-07-22T03:32:44;8.90;;;2.70;;
73940;SDS011;62294;48.554;10.202;2023-07-22T03:35:11;3.70;;;2.55;;
73940;SDS011;62294;48.554;10.202;2023-07-22T03:37:38;5.38;;;2.53;;
73940;SDS011;62294;48.554;10.202;2023-07-22T03:40:05;2.85;;;1.92;;
73940;SDS011;62294;48.554;10.202;2023-07-22T03:42:55;3.28;;;1.58;;
73940;SDS011;62294;48.554;10.202;2023-07-22T03:45:22;3.78;;;2.00;;
73940;SDS011;62294;48.554;10.202;2023-07-22T03:47:51;2.75;;;2.00;;
73940;SDS011;62294;48.554;10.202;2023-07-22T03:50:27;4.80;;;2.17;;
73940;SDS011;62294;48.554;10.202;2023-07-22T03:52:54;4.88;;;2.00;;
73940;SDS011;62294;48.554;10.202;2023-07-22T03:55:21;4.10;;;2.20;;
73940;SDS011;62294;48.554;10.202;2023-07-22T03:57:47;3.08;;;2.05;;
73940;SDS011;62294;48.554;10.202;2023-07-22T04:00:14;3.90;;;1.85;;
73940;SDS011;62294;48.554;10.202;2023-07-22T04:02:41;3.08;;;2.00;;
73940;SDS011;62294;48.554;10.202;2023-07-22T04:05:08;3.13;;;1.92;;
73940;SDS011;62294;48.554;10.202;2023-07-22T04:07:36;4.93;;;2.00;;
73940;SDS011;62294;48.554;10.202;2023-07-22T04:10:02;4.10;;;2.35;;
73940;SDS011;62294;48.554;10.202;2023-07-22T04:12:29;4.95;;;2.30;;
73940;SDS011;62294;48.554;10.202;2023-07-22T04:14:56;3.75;;;1.80;;
73940;SDS011;62294;48.554;10.202;2023-07-22T04:17:23;3.90;;;2.17;;
73940;SDS011;62294;48.554;10.202;2023-07-22T04:19:51;3.88;;;2.03;;
73940;SDS011;62294;48.554;10.202;2023-07-22T04:22:18;5.45;;;2.38;;
73940;SDS011;62294;48.554;10.202;2023-07-22T04:24:46;2.88;;;2.00;;
73940;SDS011;62294;48.554;10.202;2023-07-22T04:27:15;3.88;;;2.22;;
73940;SDS011;62294;48.554;10.202;2023-07-22T04:29:42;3.60;;;2.10;;
73940;SDS011;62294;48.554;10.202;2023-07-22T04:32:09;2.88;;;2.30;;
73940;SDS011;62294;48.554;10.202;2023-07-22T04:34:36;4.35;;;2.65;;
73940;SDS011;62294;48.554;10.202;2023-07-22T04:37:02;3.17;;;2.08;;
73940;SDS011;62294;48.554;10.202;2023-07-22T04:39:29;3.45;;;2.45;;
73940;SDS011;62294;48.554;10.202;2023-07-22T04:41:56;3.38;;;2.00;;
73940;SDS011;62294;48.554;10.202;2023-07-22T04:44:23;3.22;;;2.22;;
73940;SDS011;62294;48.554;10.202;2023-07-22T04:46:50;3.53;;;2.10;;
73940;SDS011;62294;48.554;10.202;2023-07-22T04:49:17;4.35;;;2.50;;
73940;SDS011;62294;48.554;10.202;2023-07-22T04:51:48;4.88;;;2.40;;
73940;SDS011;62294;48.554;10.202;2023-07-22T04:54:14;4.18;;;2.53;;
73940;SDS011;62294;48.554;10.202;2023-07-22T04:56:41;4.05;;;2.63;;
73940;SDS011;62294;48.554;10.202;2023-07-22T04:59:08;6.38;;;2.70;;
73940;SDS011;62294;48.554;10.202;2023-07-22T05:01:35;5.63;;;2.90;;
73940;SDS011;62294;48.554;10.202;2023-07-22T05:04:02;3.90;;;2.70;;
73940;SDS011;62294;48.554;10.202;2023-07-22T05:06:31;4.18;;;2.88;;
73940;SDS011;62294;48.554;10.202;2023-07-22T05:08:57;7.05;;;3.00;;
73940;SDS011;62294;48.554;10.202;2023-07-22T05:11:24;6.65;;;2.88;;
73940;SDS011;62294;48.554;10.202;2023-07-22T05:13:50;6.13;;;3.03;;
73940;SDS011;62294;48.554;10.202;2023-07-22T05:16:17;6.13;;;3.20;;
73940;SDS011;62294;48.554;10.202;2023-07-22T05:18:44;5.88;;;3.60;;
73940;SDS011;62294;48.554;10.202;2023-07-22T05:23:41;5.88;;;3.30;;
73940;SDS011;62294;48.554;10.202;2023-07-22T05:26:07;5.50;;;3.10;;
73940;SDS011;62294;48.554;10.202;2023-07-22T05:28:34;5.38;;;3.30;;
73940;SDS011;62294;48.554;10.202;2023-07-22T05:31:00;7.72;;;3.97;;
73940;SDS011;62294;48.554;10.202;2023-07-22T05:33:27;5.93;;;3.70;;
73940;SDS011;62294;48.554;10.202;2023-07-22T05:35:54;6.05;;;3.42;;
73940;SDS011;62294;48.554;10.202;2023-07-22T05:38:21;6.00;;;3.42;;
73940;SDS011;62294;48.554;10.202;2023-07-22T05:40:47;6.00;;;2.90;;
73940;SDS011;62294;48.554;10.202;2023-07-22T05:43:14;6.30;;;3.40;;
73940;SDS011;62294;48.554;10.202;2023-07-22T05:45:40;8.63;;;3.95;;
73940;SDS011;62294;48.554;10.202;2023-07-22T05:48:06;7.32;;;4.28;;
73940;SDS011;62294;48.554;10.202;2023-07-22T05:50:34;6.75;;;4.13;;
73940;SDS011;62294;48.554;10.202;2023-07-22T05:53:00;8.60;;;4.57;;
73940;SDS011;62294;48.554;10.202;2023-07-22T05:55:27;6.18;;;3.60;;
73940;SDS011;62294;48.554;10.202;2023-07-22T05:57:54;5.20;;;2.65;;
73940;SDS011;62294;48.554;10.202;2023-07-22T06:00:20;4.00;;;2.38;;
73940;SDS011;62294;48.554;10.202;2023-07-22T06:02:47;5.22;;;2.22;;
73940;SDS011;62294;48.554;10.202;2023-07-22T06:05:15;3.65;;;2.17;;
73940;SDS011;62294;48.554;10.202;2023-07-22T06:07:41;5.38;;;2.70;;
73940;SDS011;62294;48.554;10.202;2023-07-22T06:10:08;3.15;;;1.90;;
73940;SDS011;62294;48.554;10.202;2023-07-22T06:12:35;4.43;;;2.25;;
73940;SDS011;62294;48.554;10.202;2023-07-22T06:15:02;5.30;;;2.63;;
73940;SDS011;62294;48.554;10.202;2023-07-22T06:17:28;5.38;;;2.78;;
73940;SDS011;62294;48.554;10.202;2023-07-22T06:19:55;3.03;;;1.88;;
73940;SDS011;62294;48.554;10.202;2023-07-22T06:22:22;4.32;;;2.30;;
73940;SDS011;62294;48.554;10.202;2023-07-22T06:24:48;4.00;;;2.25;;
73940;SDS011;62294;48.554;10.202;2023-07-22T06:27:15;5.57;;;2.35;;
73940;SDS011;62294;48.554;10.202;2023-07-22T06:29:41;4.85;;;2.35;;
73940;SDS011;62294;48.554;10.202;2023-07-22T06:32:08;4.03;;;2.30;;
73940;SDS011;62294;48.554;10.202;2023-07-22T06:34:35;5.55;;;2.55;;
73940;SDS011;62294;48.554;10.202;2023-07-22T06:37:01;5.65;;;2.40;;
73940;SDS011;62294;48.554;10.202;2023-07-22T06:39:28;4.60;;;2.00;;
73940;SDS011;62294;48.554;10.202;2023-07-22T06:41:54;3.30;;;2.13;;
73940;SDS011;62294;48.554;10.202;2023-07-22T06:44:21;3.63;;;2.15;;
73940;SDS011;62294;48.554;10.202;2023-07-22T06:46:48;5.68;;;2.40;;
73940;SDS011;62294;48.554;10.202;2023-07-22T06:49:14;4.78;;;1.92;;
73940;SDS011;62294;48.554;10.202;2023-07-22T06:51:41;3.53;;;2.00;;
73940;SDS011;62294;48.554;10.202;2023-07-22T06:54:08;4.03;;;2.53;;
73940;SDS011;62294;48.554;10.202;2023-07-22T06:56:34;5.57;;;2.30;;
73940;SDS011;62294;48.554;10.202;2023-07-22T06:59:00;3.50;;;1.98;;
73940;SDS011;62294;48.554;10.202;2023-07-22T07:01:27;3.50;;;2.35;;
73940;SDS011;62294;48.554;10.202;2023-07-22T07:03:54;3.70;;;2.30;;
73940;SDS011;62294;48.554;10.202;2023-07-22T07:06:21;5.35;;;2.45;;
73940;SDS011;62294;48.554;10.202;2023-07-22T07:08:48;3.88;;;2.15;;
73940;SDS011;62294;48.554;10.202;2023-07-22T07:11:15;5.15;;;2.15;;
73940;SDS011;62294;48.554;10.202;2023-07-22T07:13:41;4.18;;;2.45;;
73940;SDS011;62294;48.554;10.202;2023-07-22T07:16:24;2.78;;;2.35;;
73940;SDS011;62294;48.554;10.202;2023-07-22T07:18:52;5.43;;;2.20;;
73940;SDS011;62294;48.554;10.202;2023-07-22T07:21:21;3.63;;;2.30;;
73940;SDS011;62294;48.554;10.202;2023-07-22T07:23:48;6.50;;;1.95;;
73940;SDS011;62294;48.554;10.202;2023-07-22T07:26:15;4.15;;;2.35;;
73940;SDS011;62294;48.554;10.202;2023-07-22T07:28:43;4.38;;;2.30;;
73940;SDS011;62294;48.554;10.202;2023-07-22T07:31:09;4.88;;;2.63;;
73940;SDS011;62294;48.554;10.202;2023-07-22T07:33:36;5.15;;;2.00;;
73940;SDS011;62294;48.554;10.202;2023-07-22T07:36:03;3.50;;;1.60;;
73940;SDS011;62294;48.554;10.202;2023-07-22T07:38:30;2.72;;;1.55;;
73940;SDS011;62294;48.554;10.202;2023-07-22T07:41:02;3.53;;;1.88;;
73940;SDS011;62294;48.554;10.202;2023-07-22T07:43:30;3.03;;;1.80;;
73940;SDS011;62294;48.554;10.202;2023-07-22T07:48:45;3.38;;;2.25;;
73940;SDS011;62294;48.554;10.202;2023-07-22T07:51:13;4.00;;;1.80;;
73940;SDS011;62294;48.554;10.202;2023-07-22T07:53:41;3.90;;;2.15;;
73940;SDS011;62294;48.554;10.202;2023-07-22T07:56:10;2.47;;;1.80;;
73940;SDS011;62294;48.554;10.202;2023-07-22T07:58:37;2.58;;;1.70;;
73940;SDS011;62294;48.554;10.202;2023-07-22T08:01:04;2.67;;;1.38;;
73940;SDS011;62294;48.554;10.202;2023-07-22T08:03:31;2.08;;;1.48;;
73940;SDS011;62294;48.554;10.202;2023-07-22T08:05:59;1.70;;;1.25;;
73940;SDS011;62294;48.554;10.202;2023-07-22T08:08:26;3.28;;;1.45;;
73940;SDS011;62294;48.554;10.202;2023-07-22T08:13:25;4.30;;;1.55;;
73940;SDS011;62294;48.554;10.202;2023-07-22T08:15:53;4.20;;;1.88;;
73940;SDS011;62294;48.554;10.202;2023-07-22T08:18:20;4.68;;;1.52;;
73940;SDS011;62294;48.554;10.202;2023-07-22T08:20:47;2.63;;;1.40;;
73940;SDS011;62294;48.554;10.202;2023-07-22T08:23:14;3.58;;;1.52;;
73940;SDS011;62294;48.554;10.202;2023-07-22T08:25:40;2.42;;;1.45;;
73940;SDS011;62294;48.554;10.202;2023-07-22T08:28:07;3.00;;;1.42;;
73940;SDS011;62294;48.554;10.202;2023-07-22T08:30:33;3.05;;;1.17;;
73940;SDS011;62294;48.554;10.202;2023-07-22T08:33:00;3.85;;;1.35;;
73940;SDS011;62294;48.554;10.202;2023-07-22T08:35:27;3.22;;;1.63;;
73940;SDS011;62294;48.554;10.202;2023-07-22T08:37:54;2.63;;;1.55;;
73940;SDS011;62294;48.554;10.202;2023-07-22T08:40:20;1.50;;;1.02;;
73940;SDS011;62294;48.554;10.202;2023-07-22T08:42:47;2.00;;;1.00;;
73940;SDS011;62294;48.554;10.202;2023-07-22T08:45:16;3.67;;;1.65;;
73940;SDS011;62294;48.554;10.202;2023-07-22T08:47:46;3.72;;;1.23;;
73940;SDS011;62294;48.554;10.202;2023-07-22T08:50:15;2.15;;;1.40;;
73940;SDS011;62294;48.554;10.202;2023-07-22T08:52:46;2.17;;;1.38;;
73940;SDS011;62294;48.554;10.202;2023-07-22T08:55:14;3.40;;;1.40;;
73940;SDS011;62294;48.554;10.202;2023-07-22T08:57:40;2.20;;;1.30;;
73940;SDS011;62294;48.554;10.202;2023-07-22T09:00:07;2.22;;;1.23;;
73940;SDS011;62294;48.554;10.202;2023-07-22T09:02:35;1.65;;;1.20;;
73940;SDS011;62294;48.554;10.202;2023-07-22T09:05:02;2.83;;;1.17;;
73940;SDS011;62294;48.554;10.202;2023-07-22T09:07:29;2.05;;;1.30;;
73940;SDS011;62294;48.554;10.202;2023-07-22T09:09:56;1.92;;;1.20;;
73940;SDS011;62294;48.554;10.202;2023-07-22T09:12:23;2.60;;;1.30;;
73940;SDS011;62294;48.554;10.202;2023-07-22T09:14:51;2.47;;;1.40;;
73940;SDS011;62294;48.554;10.202;2023-07-22T09:17:18;1.83;;;1.30;;
73940;SDS011;62294;48.554;10.202;2023-07-22T09:19:44;3.47;;;1.48;;
73940;SDS011;62294;48.554;10.202;2023-07-22T09:22:11;1.95;;;1.38;;
73940;SDS011;62294;48.554;10.202;2023-07-22T09:24:38;1.70;;;1.20;;
73940;SDS011;62294;48.554;10.202;2023-07-22T09:27:04;1.65;;;1.50;;
73940;SDS011;62294;48.554;10.202;2023-07-22T09:29:34;2.15;;;1.30;;
73940;SDS011;62294;48.554;10.202;2023-07-22T09:32:02;1.90;;;1.30;;
73940;SDS011;62294;48.554;10.202;2023-07-22T09:34:29;3.42;;;1.30;;
73940;SDS011;62294;48.554;10.202;2023-07-22T09:36:58;1.90;;;1.10;;
73940;SDS011;62294;48.554;10.202;2023-07-22T09:39:30;2.50;;;1.73;;
73940;SDS011;62294;48.554;10.202;2023-07-22T09:41:56;2.35;;;1.25;;
73940;SDS011;62294;48.554;10.202;2023-07-22T09:44:29;2.20;;;1.42;;
73940;SDS011;62294;48.554;10.202;2023-07-22T09:46:57;2.03;;;1.25;;
73940;SDS011;62294;48.554;10.202;2023-07-22T09:49:24;1.65;;;0.95;;
73940;SDS011;62294;48.554;10.202;2023-07-22T09:51:51;2.60;;;1.40;;
73940;SDS011;62294;48.554;10.202;2023-07-22T09:54:28;4.07;;;1.30;;
73940;SDS011;62294;48.554;10.202;2023-07-22T09:56:58;1.33;;;1.02;;
73940;SDS011;62294;48.554;10.202;2023-07-22T09:59:25;1.52;;;1.10;;
73940;SDS011;62294;48.554;10.202;2023-07-22T10:01:55;1.77;;;1.40;;
73940;SDS011;62294;48.554;10.202;2023-07-22T10:04:25;2.08;;;1.42;;
73940;SDS011;62294;48.554;10.202;2023-07-22T10:06:58;2.75;;;1.58;;
73940;SDS011;62294;48.554;10.202;2023-07-22T10:09:24;4.28;;;1.20;;
73940;SDS011;62294;48.554;10.202;2023-07-22T10:11:54;2.78;;;1.45;;
73940;SDS011;62294;48.554;10.202;2023-07-22T10:14:21;1.92;;;1.20;;
73940;SDS011;62294;48.554;10.202;2023-07-22T10:16:48;1.92;;;1.10;;
73940;SDS011;62294;48.554;10.202;2023-07-22T10:19:16;2.85;;;1.40;;
73940;SDS011;62294;48.554;10.202;2023-07-22T10:21:43;2.58;;;1.23;;
73940;SDS011;62294;48.554;10.202;2023-07-22T10:24:09;2.72;;;1.08;;
73940;SDS011;62294;48.554;10.202;2023-07-22T10:26:37;4.43;;;1.65;;
73940;SDS011;62294;48.554;10.202;2023-07-22T10:29:13;4.30;;;1.55;;
73940;SDS011;62294;48.554;10.202;2023-07-22T10:31:40;2.33;;;1.40;;
73940;SDS011;62294;48.554;10.202;2023-07-22T10:34:06;2.40;;;1.30;;
73940;SDS011;62294;48.554;10.202;2023-07-22T10:36:34;3.83;;;1.55;;
73940;SDS011;62294;48.554;10.202;2023-07-22T10:39:02;4.80;;;1.80;;
73940;SDS011;62294;48.554;10.202;2023-07-22T10:41:31;2.67;;;1.30;;
73940;SDS011;62294;48.554;10.202;2023-07-22T10:43:59;2.97;;;1.30;;
73940;SDS011;62294;48.554;10.202;2023-07-22T10:46:36;2.33;;;1.23;;
73940;SDS011;62294;48.554;10.202;2023-07-22T10:49:13;1.83;;;1.35;;
73940;SDS011;62294;48.554;10.202;2023-07-22T10:51:48;2.45;;;1.50;;
73940;SDS011;62294;48.554;10.202;2023-07-22T10:54:30;3.22;;;1.60;;
73940;SDS011;62294;48.554;10.202;2023-07-22T10:57:02;1.73;;;1.15;;
73940;SDS011;62294;48.554;10.202;2023-07-22T10:59:47;3.85;;;1.50;;
73940;SDS011;62294;48.554;10.202;2023-07-22T11:02:25;2.10;;;1.27;;
73940;SDS011;62294;48.554;10.202;2023-07-22T11:04:57;3.72;;;1.60;;
73940;SDS011;62294;48.554;10.202;2023-07-22T11:07:32;2.10;;;1.30;;
73940;SDS011;62294;48.554;10.202;2023-07-22T11:10:11;3.38;;;1.45;;
73940;SDS011;62294;48.554;10.202;2023-07-22T11:12:40;2.50;;;1.23;;
73940;SDS011;62294;48.554;10.202;2023-07-22T11:15:09;2.38;;;1.42;;
73940;SDS011;62294;48.554;10.202;2023-07-22T11:17:36;2.30;;;1.30;;
73940;SDS011;62294;48.554;10.202;2023-07-22T11:20:03;2.15;;;1.50;;
73940;SDS011;62294;48.554;10.202;2023-07-22T11:22:31;2.63;;;1.40;;
73940;SDS011;62294;48.554;10.202;2023-07-22T11:24:57;1.20;;;1.10;;
73940;SDS011;62294;48.554;10.202;2023-07-22T11:27:24;3.38;;;1.30;;
73940;SDS011;62294;48.554;10.202;2023-07-22T11:29:51;2.50;;;1.42;;
73940;SDS011;62294;48.554;10.202;2023-07-22T11:32:19;1.83;;;1.25;;
73940;SDS011;62294;48.554;10.202;2023-07-22T11:34:51;0.85;;;0.80;;
73940;SDS011;62294;48.554;10.202;2023-07-22T11:37:20;1.50;;;1.20;;
73940;SDS011;62294;48.554;10.202;2023-07-22T11:39:46;1.85;;;1.20;;
73940;SDS011;62294;48.554;10.202;2023-07-22T11:42:12;2.63;;;1.20;;
73940;SDS011;62294;48.554;10.202;2023-07-22T11:44:39;3.00;;;1.80;;
73940;SDS011;62294;48.554;10.202;2023-07-22T11:47:07;3.47;;;1.35;;
73940;SDS011;62294;48.554;10.202;2023-07-22T11:49:35;2.15;;;1.40;;
73940;SDS011;62294;48.554;10.202;2023-07-22T11:52:06;1.77;;;1.23;;
73940;SDS011;62294;48.554;10.202;2023-07-22T11:54:34;2.38;;;1.35;;
73940;SDS011;62294;48.554;10.202;2023-07-22T11:57:14;1.45;;;1.13;;
73940;SDS011;62294;48.554;10.202;2023-07-22T11:59:43;8.40;;;6.82;;
73940;SDS011;62294;48.554;10.202;2023-07-22T12:02:13;1.92;;;1.25;;
73940;SDS011;62294;48.554;10.202;2023-07-22T12:04:43;4.15;;;1.50;;
73940;SDS011;62294;48.554;10.202;2023-07-22T12:07:24;3.33;;;1.58;;
73940;SDS011;62294;48.554;10.202;2023-07-22T12:09:53;2.28;;;1.73;;
73940;SDS011;62294;48.554;10.202;2023-07-22T12:12:21;1.50;;;1.25;;
73940;SDS011;62294;48.554;10.202;2023-07-22T12:14:47;1.85;;;1.30;;
73940;SDS011;62294;48.554;10.202;2023-07-22T12:17:13;2.05;;;1.30;;
73940;SDS011;62294;48.554;10.202;2023-07-22T12:19:50;1.88;;;1.20;;
73940;SDS011;62294;48.554;10.202;2023-07-22T12:22:17;3.80;;;1.35;;
73940;SDS011;62294;48.554;10.202;2023-07-22T12:24:46;3.05;;;1.58;;
73940;SDS011;62294;48.554;10.202;2023-07-22T12:27:13;1.33;;;1.10;;
73940;SDS011;62294;48.554;10.202;2023-07-22T12:29:40;1.67;;;1.20;;
73940;SDS011;62294;48.554;10.202;2023-07-22T12:32:06;4.40;;;1.48;;
73940;SDS011;62294;48.554;10.202;2023-07-22T12:34:33;3.17;;;1.50;;
73940;SDS011;62294;48.554;10.202;2023-07-22T12:37:00;1.92;;;1.30;;
73940;SDS011;62294;48.554;10.202;2023-07-22T12:39:27;1.98;;;1.33;;
73940;SDS011;62294;48.554;10.202;2023-07-22T12:41:55;3.63;;;2.33;;
73940;SDS011;62294;48.554;10.202;2023-07-22T12:44:21;3.03;;;1.48;;
73940;SDS011;62294;48.554;10.202;2023-07-22T12:46:49;3.38;;;1.65;;
73940;SDS011;62294;48.554;10.202;2023-07-22T12:49:15;1.83;;;1.35;;
73940;SDS011;62294;48.554;10.202;2023-07-22T12:51:42;2.47;;;1.40;;
73940;SDS011;62294;48.554;10.202;2023-07-22T12:54:08;3.70;;;1.52;;
73940;SDS011;62294;48.554;10.202;2023-07-22T12:56:35;3.50;;;1.35;;
73940;SDS011;62294;48.554;10.202;2023-07-22T12:59:01;2.80;;;1.23;;
73940;SDS011;62294;48.554;10.202;2023-07-22T13:01:29;2.35;;;1.30;;
73940;SDS011;62294;48.554;10.202;2023-07-22T13:03:55;2.42;;;1.50;;
73940;SDS011;62294;48.554;10.202;2023-07-22T13:06:22;1.45;;;1.05;;
73940;SDS011;62294;48.554;10.202;2023-07-22T13:08:49;1.67;;;1.15;;
73940;SDS011;62294;48.554;10.202;2023-07-22T13:11:15;1.58;;;1.10;;
73940;SDS011;62294;48.554;10.202;2023-07-22T13:13:42;3.53;;;1.60;;
73940;SDS011;62294;48.554;10.202;2023-07-22T13:16:08;3.83;;;1.23;;
73940;SDS011;62294;48.554;10.202;2023-07-22T13:18:35;1.80;;;1.25;;
73940;SDS011;62294;48.554;10.202;2023-07-22T13:21:01;2.78;;;1.70;;
73940;SDS011;62294;48.554;10.202;2023-07-22T13:23:29;2.15;;;1.50;;
73940;SDS011;62294;48.554;10.202;2023-07-22T13:25:55;1.40;;;1.08;;
73940;SDS011;62294;48.554;10.202;2023-07-22T13:28:21;2.33;;;1.20;;
73940;SDS011;62294;48.554;10.202;2023-07-22T13:30:48;1.63;;;1.50;;
73940;SDS011;62294;48.554;10.202;2023-07-22T13:33:14;7.82;;;1.67;;
73940;SDS011;62294;48.554;10.202;2023-07-22T13:35:41;11.00;;;2.95;;
73940;SDS011;62294;48.554;10.202;2023-07-22T13:38:08;1.88;;;1.30;;
73940;SDS011;62294;48.554;10.202;2023-07-22T13:40:34;2.63;;;1.50;;
73940;SDS011;62294;48.554;10.202;2023-07-22T13:43:01;3.47;;;1.40;;
73940;SDS011;62294;48.554;10.202;2023-07-22T13:45:28;5.47;;;1.35;;
73940;SDS011;62294;48.554;10.202;2023-07-22T13:47:54;1.98;;;1.30;;
73940;SDS011;62294;48.554;10.202;2023-07-22T13:50:21;2.97;;;1.65;;
73940;SDS011;62294;48.554;10.202;2023-07-22T13:52:48;6.45;;;1.60;;
73940;SDS011;62294;48.554;10.202;2023-07-22T13:55:15;5.15;;;1.50;;
73940;SDS011;62294;48.554;10.202;2023-07-22T13:57:41;2.17;;;1.30;;
73940;SDS011;62294;48.554;10.202;2023-07-22T14:00:08;7.07;;;1.98;;
73940;SDS011;62294;48.554;10.202;2023-07-22T14:02:37;3.45;;;1.40;;
73940;SDS011;62294;48.554;10.202;2023-07-22T14:05:04;5.32;;;2.47;;
73940;SDS011;62294;48.554;10.202;2023-07-22T14:07:31;2.90;;;1.67;;
73940;SDS011;62294;48.554;10.202;2023-07-22T14:09:58;1.90;;;1.33;;
73940;SDS011;62294;48.554;10.202;2023-07-22T14:12:24;2.15;;;1.48;;
73940;SDS011;62294;48.554;10.202;2023-07-22T14:14:51;2.05;;;1.23;;
73940;SDS011;62294;48.554;10.202;2023-07-22T14:17:18;5.25;;;1.80;;
73940;SDS011;62294;48.554;10.202;2023-07-22T14:19:44;2.25;;;1.60;;
73940;SDS011;62294;48.554;10.202;2023-07-22T14:22:11;6.35;;;1.75;;
73940;SDS011;62294;48.554;10.202;2023-07-22T14:24:37;2.72;;;1.70;;
73940;SDS011;62294;48.554;10.202;2023-07-22T14:27:04;2.72;;;1.50;;
73940;SDS011;62294;48.554;10.202;2023-07-22T14:29:31;1.95;;;1.20;;
73940;SDS011;62294;48.554;10.202;2023-07-22T14:31:57;3.33;;;1.40;;
73940;SDS011;62294;48.554;10.202;2023-07-22T14:34:24;3.22;;;1.55;;
73940;SDS011;62294;48.554;10.202;2023-07-22T14:36:51;3.97;;;1.65;;
73940;SDS011;62294;48.554;10.202;2023-07-22T14:39:17;3.63;;;1.63;;
73940;SDS011;62294;48.554;10.202;2023-07-22T14:41:43;2.65;;;1.55;;
73940;SDS011;62294;48.554;10.202;2023-07-22T14:44:11;3.03;;;1.77;;